Time;durP1;ratioP1;P1;durP2;ratioP2;P2;SDS_P1;SDS_P2;PMS_P1;PMS_P2;Temp;Humidity;BMP_temperature;BMP_pressure;BME280_temperature;BME280_humidity;BME280_pressure;Samples;Min_cycle;Max_cycle;Signal;HPM_P1;HPM_P2
2023/10/24 00:01:33;;;;;;;2.20;1.60;;;15.40;75.90;;;;;;5013032;28;20038;-78
2023/10/24 00:03:58;;;;;;;2.00;1.80;;;15.40;75.90;;;;;;5044267;28;20034;-77
2023/10/24 00:06:24;;;;;;;2.13;1.65;;;15.40;75.90;;;;;;5029953;28;20043;-77
2023/10/24 00:08:50;;;;;;;1.58;1.48;;;15.40;76.50;;;;;;5028999;28;20100;-76
2023/10/24 00:11:15;;;;;;;1.70;1.60;;;15.40;75.90;;;;;;5030881;28;20535;-76
2023/10/24 00:13:41;;;;;;;2.45;1.92;;;15.40;76.00;;;;;;5029556;28;20061;-78
2023/10/24 00:16:07;;;;;;;1.40;1.30;;;15.40;76.00;;;;;;5027349;28;20742;-77
2023/10/24 00:18:33;;;;;;;2.08;1.80;;;15.30;75.90;;;;;;5014406;28;20029;-77
2023/10/24 00:20:59;;;;;;;2.00;1.60;;;15.40;76.00;;;;;;5013275;28;20501;-77
2023/10/24 00:23:25;;;;;;;2.28;1.90;;;15.30;76.00;;;;;;5040374;28;20036;-76
2023/10/24 00:25:51;;;;;;;2.22;1.70;;;15.40;76.10;;;;;;5036492;28;20032;-76
2023/10/24 00:28:17;;;;;;;1.75;1.63;;;15.30;76.00;;;;;;5042138;28;20040;-76
2023/10/24 00:30:42;;;;;;;2.00;1.80;;;15.30;76.00;;;;;;5023870;28;20493;-77
2023/10/24 00:33:08;;;;;;;2.58;1.70;;;15.30;76.00;;;;;;5037560;28;20033;-78
2023/10/24 00:35:34;;;;;;;2.03;1.73;;;15.30;76.10;;;;;;5028062;28;20053;-77
2023/10/24 00:38:00;;;;;;;2.58;1.77;;;15.30;76.10;;;;;;5026583;28;20036;-77
2023/10/24 00:40:26;;;;;;;2.25;1.80;;;15.30;76.10;;;;;;5047493;28;20029;-77
2023/10/24 00:42:52;;;;;;;2.15;1.58;;;15.30;76.10;;;;;;5019504;28;20033;-76
2023/10/24 00:45:18;;;;;;;2.88;1.95;;;15.30;76.10;;;;;;5040406;28;20031;-77
2023/10/24 00:47:45;;;;;;;2.55;1.58;;;15.30;76.10;;;;;;5034689;28;20044;-77
2023/10/24 00:50:12;;;;;;;2.22;1.88;;;15.30;76.20;;;;;;5038056;28;20044;-77
2023/10/24 00:52:41;;;;;;;2.72;2.10;;;15.30;76.20;;;;;;5030195;28;20445;-77
2023/10/24 00:55:08;;;;;;;1.95;1.75;;;15.30;76.20;;;;;;5027048;28;20072;-77
2023/10/24 00:57:34;;;;;;;2.63;1.90;;;15.30;76.20;;;;;;4991735;28;20466;-77
2023/10/24 01:00:01;;;;;;;1.90;1.70;;;15.30;76.20;;;;;;5030627;28;20095;-76
2023/10/24 01:02:27;;;;;;;2.80;2.10;;;15.30;76.20;;;;;;5029459;28;20021;-77
2023/10/24 01:04:56;;;;;;;1.95;1.73;;;15.30;76.20;;;;;;5011747;28;20033;-77
2023/10/24 01:07:22;;;;;;;2.00;1.80;;;15.30;76.30;;;;;;5031144;28;20087;-77
2023/10/24 01:09:47;;;;;;;2.38;1.95;;;15.30;76.20;;;;;;5012448;28;20029;-76
2023/10/24 01:12:13;;;;;;;1.92;1.73;;;15.30;76.20;;;;;;5007816;28;20029;-76
2023/10/24 01:14:40;;;;;;;1.88;1.65;;;15.30;76.20;;;;;;5027364;28;20040;-77
2023/10/24 01:17:12;;;;;;;2.60;2.10;;;15.30;76.20;;;;;;5029111;28;20076;-76
2023/10/24 01:19:38;;;;;;;2.78;2.03;;;15.30;76.30;;;;;;5027927;28;20044;-77
2023/10/24 01:22:04;;;;;;;2.60;2.00;;;15.20;76.20;;;;;;5024416;28;20116;-77
2023/10/24 01:24:29;;;;;;;2.58;1.83;;;15.30;76.30;;;;;;5027157;28;20537;-76
2023/10/24 01:26:58;;;;;;;1.95;1.75;;;15.20;76.20;;;;;;5025965;28;20408;-78
2023/10/24 01:29:24;;;;;;;1.77;1.67;;;15.30;76.30;;;;;;5025713;28;20896;-77
2023/10/24 01:31:50;;;;;;;2.17;1.98;;;15.20;76.20;;;;;;5011276;28;20057;-77
2023/10/24 01:34:16;;;;;;;1.88;1.77;;;15.20;76.20;;;;;;5011307;28;20040;-76
2023/10/24 01:36:42;;;;;;;2.10;1.90;;;15.30;76.30;;;;;;5030089;28;20421;-77
2023/10/24 01:39:08;;;;;;;2.40;1.83;;;15.30;76.30;;;;;;4996375;28;20053;-77
2023/10/24 01:41:34;;;;;;;1.88;1.77;;;15.20;76.20;;;;;;5026171;28;20383;-78
2023/10/24 01:44:00;;;;;;;2.03;1.83;;;15.30;76.30;;;;;;5025448;28;20032;-77
2023/10/24 01:46:26;;;;;;;2.00;1.80;;;15.20;76.20;;;;;;5027535;28;20021;-77
2023/10/24 01:48:52;;;;;;;2.38;2.00;;;15.30;76.30;;;;;;5029050;28;20041;-76
2023/10/24 01:51:19;;;;;;;2.10;1.83;;;15.20;76.30;;;;;;5025578;28;20160;-78
2023/10/24 01:53:46;;;;;;;2.40;2.05;;;15.20;76.20;;;;;;5027038;28;20057;-77
2023/10/24 01:56:12;;;;;;;2.42;1.73;;;15.20;76.20;;;;;;5029770;28;20040;-77
2023/10/24 01:58:37;;;;;;;2.00;1.80;;;15.20;76.20;;;;;;5027010;28;20034;-77
2023/10/24 02:01:03;;;;;;;2.15;1.83;;;15.30;76.30;;;;;;5011379;28;20272;-78
2023/10/24 02:03:30;;;;;;;2.28;1.80;;;15.20;76.20;;;;;;5028824;28;20076;-77
2023/10/24 02:05:56;;;;;;;2.25;1.90;;;15.20;76.30;;;;;;5011990;28;20472;-76
2023/10/24 02:08:21;;;;;;;2.22;2.03;;;15.20;76.20;;;;;;5011679;28;20041;-77
2023/10/24 02:10:47;;;;;;;2.33;1.80;;;15.20;76.20;;;;;;5026163;28;20041;-77
2023/10/24 02:13:13;;;;;;;2.03;1.77;;;15.30;76.30;;;;;;5010985;28;20049;-77
2023/10/24 02:15:38;;;;;;;2.80;2.17;;;15.20;76.20;;;;;;5022426;28;20033;-77
2023/10/24 02:18:04;;;;;;;2.22;2.00;;;15.30;76.30;;;;;;5024191;28;20030;-77
2023/10/24 02:20:30;;;;;;;2.13;1.85;;;15.20;76.20;;;;;;5020323;28;20084;-77
2023/10/24 02:22:56;;;;;;;2.33;1.65;;;15.20;76.20;;;;;;5018258;28;20056;-76
2023/10/24 02:25:21;;;;;;;2.22;1.98;;;15.20;76.20;;;;;;5039298;28;20099;-77
2023/10/24 02:27:47;;;;;;;2.00;1.80;;;15.30;76.30;;;;;;5026412;28;20478;-76
2023/10/24 02:30:13;;;;;;;2.08;1.88;;;15.20;76.20;;;;;;5044504;28;20021;-77
2023/10/24 02:32:38;;;;;;;2.00;1.70;;;15.20;76.20;;;;;;5042171;28;20044;-77
2023/10/24 02:35:05;;;;;;;2.00;1.80;;;15.20;76.20;;;;;;5021937;28;20498;-77
2023/10/24 02:37:30;;;;;;;2.22;1.73;;;15.30;76.90;;;;;;5008992;28;20052;-77
2023/10/24 02:39:56;;;;;;;2.75;1.88;;;15.20;76.20;;;;;;5037809;28;20057;-76
2023/10/24 02:42:22;;;;;;;3.55;1.77;;;15.20;76.20;;;;;;5004149;28;20053;-77
2023/10/24 02:44:49;;;;;;;2.05;1.70;;;15.20;76.20;;;;;;5040793;28;20037;-77
2023/10/24 02:47:15;;;;;;;2.15;1.75;;;15.20;76.20;;;;;;5043257;28;20046;-77
2023/10/24 02:49:40;;;;;;;2.05;1.67;;;15.20;76.30;;;;;;5017688;28;20029;-77
2023/10/24 02:52:06;;;;;;;2.30;1.67;;;15.20;76.20;;;;;;5001487;28;20559;-77
2023/10/24 02:54:32;;;;;;;2.00;1.80;;;15.20;76.30;;;;;;5029678;28;20425;-77
2023/10/24 02:56:58;;;;;;;1.80;1.65;;;15.20;76.20;;;;;;5014869;28;20084;-77
2023/10/24 02:59:24;;;;;;;2.28;1.73;;;15.20;76.30;;;;;;4997376;28;20025;-77
2023/10/24 03:01:50;;;;;;;2.13;1.77;;;15.20;76.30;;;;;;5028961;28;20033;-78
2023/10/24 03:04:16;;;;;;;2.22;1.80;;;15.20;76.30;;;;;;5031871;28;20056;-76
2023/10/24 03:06:41;;;;;;;1.50;1.40;;;15.20;76.30;;;;;;5030256;28;20199;-77
2023/10/24 03:09:08;;;;;;;1.55;1.42;;;15.20;76.30;;;;;;5029470;28;20352;-76
2023/10/24 03:11:33;;;;;;;1.65;1.55;;;15.20;76.30;;;;;;5028730;28;20029;-77
2023/10/24 03:14:01;;;;;;;2.00;1.80;;;15.20;76.30;;;;;;4998932;28;20490;-76
2023/10/24 03:16:27;;;;;;;1.88;1.70;;;15.20;76.30;;;;;;5027100;28;20044;-78
2023/10/24 03:19:08;;;;;;;1.65;1.55;;;15.20;76.30;;;;;;4990963;28;20140;-77
2023/10/24 03:21:34;;;;;;;2.13;1.92;;;15.20;76.30;;;;;;5029261;28;20116;-76
2023/10/24 03:23:59;;;;;;;2.13;1.63;;;15.20;76.30;;;;;;5029536;28;20455;-77
2023/10/24 03:26:25;;;;;;;1.70;1.50;;;15.20;76.30;;;;;;5010156;28;20022;-76
2023/10/24 03:28:51;;;;;;;1.75;1.63;;;15.20;76.30;;;;;;5032133;28;20490;-76
2023/10/24 03:31:17;;;;;;;2.20;1.90;;;15.20;76.30;;;;;;5013397;28;20033;-77
2023/10/24 03:33:42;;;;;;;2.95;1.70;;;15.20;76.30;;;;;;5010702;28;20034;-77
2023/10/24 03:36:15;;;;;;;1.98;1.77;;;15.20;76.30;;;;;;4997918;28;20037;-77
2023/10/24 03:38:40;;;;;;;2.20;2.00;;;15.20;76.30;;;;;;5029908;28;20478;-77
2023/10/24 03:41:07;;;;;;;2.30;1.60;;;15.20;76.30;;;;;;5028281;28;20125;-76
2023/10/24 03:43:34;;;;;;;2.00;1.80;;;15.20;76.30;;;;;;5012574;28;20034;-76
2023/10/24 03:46:05;;;;;;;2.10;1.63;;;15.20;76.30;;;;;;5027464;28;20025;-77
2023/10/24 03:48:31;;;;;;;2.13;1.60;;;15.20;76.40;;;;;;5028301;28;20033;-77
2023/10/24 03:50:59;;;;;;;2.03;1.77;;;15.20;76.30;;;;;;5027017;28;20497;-77
2023/10/24 03:53:25;;;;;;;2.00;1.67;;;15.20;76.40;;;;;;5029988;28;20025;-77
2023/10/24 03:55:58;;;;;;;2.00;1.80;;;15.10;76.30;;;;;;5029391;28;20386;-77
2023/10/24 03:58:25;;;;;;;2.03;1.75;;;15.20;76.40;;;;;;5027267;28;20037;-77
2023/10/24 04:00:51;;;;;;;1.75;1.63;;;15.20;76.40;;;;;;5028598;28;20040;-77
2023/10/24 04:03:16;;;;;;;3.10;1.77;;;15.20;76.40;;;;;;5027934;28;20025;-77
2023/10/24 04:05:42;;;;;;;2.72;2.00;;;15.10;76.30;;;;;;5035156;28;20061;-76
2023/10/24 04:08:09;;;;;;;2.15;1.73;;;15.10;76.30;;;;;;5030089;28;20090;-76
2023/10/24 04:10:34;;;;;;;1.92;1.60;;;15.10;76.30;;;;;;5027572;28;20096;-76
2023/10/24 04:13:01;;;;;;;2.17;1.88;;;15.10;76.30;;;;;;5028754;28;20050;-80
2023/10/24 04:15:27;;;;;;;2.47;1.90;;;15.10;76.30;;;;;;5012488;28;20052;-76
2023/10/24 04:17:54;;;;;;;2.55;1.90;;;15.10;76.30;;;;;;5014857;28;20033;-76
2023/10/24 04:20:19;;;;;;;2.15;1.70;;;15.10;76.30;;;;;;5040120;28;20029;-77
2023/10/24 04:22:47;;;;;;;2.33;1.73;;;15.10;76.30;;;;;;5042820;28;20040;-76
2023/10/24 04:25:13;;;;;;;1.98;1.77;;;15.10;76.40;;;;;;5007683;28;20037;-76
2023/10/24 04:27:38;;;;;;;2.53;2.08;;;15.10;76.40;;;;;;5025735;28;20037;-76
2023/10/24 04:30:06;;;;;;;1.92;1.73;;;15.10;76.30;;;;;;5048254;28;20051;-77
2023/10/24 04:32:32;;;;;;;3.25;2.17;;;15.10;76.20;;;;;;5030941;28;20149;-77
2023/10/24 04:34:57;;;;;;;2.42;2.05;;;15.10;76.40;;;;;;5011062;28;20484;-76
2023/10/24 04:37:23;;;;;;;2.35;2.03;;;15.10;76.30;;;;;;5029155;28;20024;-76
2023/10/24 04:39:49;;;;;;;2.33;1.80;;;15.10;76.30;;;;;;4994142;28;20029;-76
2023/10/24 04:42:15;;;;;;;1.77;1.67;;;15.10;76.40;;;;;;5028833;28;20044;-78
2023/10/24 04:44:40;;;;;;;2.35;1.85;;;15.10;76.40;;;;;;5022816;28;20102;-77
2023/10/24 04:47:06;;;;;;;2.25;1.75;;;15.10;76.40;;;;;;5023799;28;20048;-77
2023/10/24 04:49:32;;;;;;;2.53;1.77;;;15.10;76.40;;;;;;5026076;28;20498;-77
2023/10/24 04:51:58;;;;;;;1.80;1.52;;;15.00;76.30;;;;;;5034356;28;20055;-76
2023/10/24 04:54:23;;;;;;;2.10;1.60;;;15.00;76.30;;;;;;5039109;28;20079;-77
2023/10/24 04:56:49;;;;;;;1.95;1.75;;;15.10;76.40;;;;;;5031261;28;20384;-77
2023/10/24 04:59:15;;;;;;;2.90;1.90;;;15.10;76.40;;;;;;5008389;28;20030;-74
2023/10/24 05:01:40;;;;;;;2.38;1.75;;;15.00;76.30;;;;;;5028869;28;20539;-77
2023/10/24 05:04:06;;;;;;;2.33;1.85;;;15.00;76.30;;;;;;4994871;28;20022;-77
2023/10/24 05:06:32;;;;;;;3.67;2.17;;;15.00;76.40;;;;;;5048685;28;20045;-78
2023/10/24 05:08:59;;;;;;;2.95;1.90;;;15.00;76.40;;;;;;5042339;28;20036;-76
2023/10/24 05:11:25;;;;;;;2.50;2.17;;;15.00;76.40;;;;;;5033088;28;20029;-76
2023/10/24 05:13:51;;;;;;;2.05;1.80;;;15.00;76.40;;;;;;5024899;28;20057;-78
2023/10/24 05:16:17;;;;;;;1.80;1.70;;;15.00;76.40;;;;;;5026195;28;20116;-77
2023/10/24 05:18:42;;;;;;;2.53;1.70;;;15.00;76.40;;;;;;5024665;28;20382;-77
2023/10/24 05:21:08;;;;;;;2.50;2.00;;;15.00;76.40;;;;;;5020813;28;20021;-76
2023/10/24 05:23:34;;;;;;;2.80;2.00;;;15.00;76.40;;;;;;5025670;28;20579;-78
2023/10/24 05:25:59;;;;;;;2.45;2.20;;;15.00;76.40;;;;;;5009109;28;20175;-76
2023/10/24 05:28:25;;;;;;;2.75;2.22;;;15.00;76.40;;;;;;5024678;28;20061;-76
2023/10/24 05:30:51;;;;;;;2.42;1.98;;;15.00;76.40;;;;;;5024116;28;20576;-77
2023/10/24 05:33:16;;;;;;;2.25;1.83;;;15.00;76.40;;;;;;5025825;28;20034;-76
2023/10/24 05:35:48;;;;;;;2.45;2.10;;;15.00;76.40;;;;;;5009937;28;20134;-76
2023/10/24 05:38:14;;;;;;;2.47;2.08;;;15.00;76.40;;;;;;5011297;28;20034;-76
2023/10/24 05:40:40;;;;;;;2.45;2.00;;;15.00;76.40;;;;;;5041442;28;20116;-76
2023/10/24 05:43:06;;;;;;;2.10;1.90;;;15.00;76.40;;;;;;5020873;28;20103;-77
2023/10/24 05:45:32;;;;;;;2.22;1.90;;;15.00;76.40;;;;;;5038159;28;20036;-77
2023/10/24 05:47:58;;;;;;;2.90;1.98;;;15.00;76.40;;;;;;5026318;28;20047;-76
2023/10/24 05:50:24;;;;;;;2.35;1.90;;;15.00;76.40;;;;;;5037479;28;20029;-76
2023/10/24 05:52:50;;;;;;;2.63;2.00;;;14.90;76.30;;;;;;5037109;28;20040;-76
2023/10/24 05:55:16;;;;;;;2.88;2.00;;;15.00;76.40;;;;;;5038043;28;20336;-76
2023/10/24 05:57:42;;;;;;;2.38;1.90;;;14.90;76.40;;;;;;5044840;28;20033;-76
2023/10/24 06:00:09;;;;;;;2.40;1.95;;;14.90;76.40;;;;;;5039764;28;20029;-76
2023/10/24 06:02:35;;;;;;;2.60;2.00;;;15.00;76.40;;;;;;5033933;28;20026;-76
2023/10/24 06:05:00;;;;;;;2.45;2.00;;;14.90;76.40;;;;;;5000842;28;20473;-76
2023/10/24 06:07:26;;;;;;;3.42;2.35;;;14.90;76.40;;;;;;5044269;28;20037;-76
2023/10/24 06:09:52;;;;;;;3.40;2.30;;;14.90;76.40;;;;;;5040343;28;20083;-76
2023/10/24 06:12:18;;;;;;;2.42;2.05;;;14.90;76.40;;;;;;5047575;28;20508;-76
2023/10/24 06:14:43;;;;;;;3.08;2.20;;;14.90;76.40;;;;;;5026032;28;20057;-76
2023/10/24 06:17:11;;;;;;;3.33;2.50;;;14.90;76.40;;;;;;5036630;28;20115;-77
2023/10/24 06:19:40;;;;;;;3.42;2.22;;;14.90;76.40;;;;;;5043656;28;20033;-76
2023/10/24 06:22:06;;;;;;;2.50;2.03;;;14.90;76.40;;;;;;5022743;28;20026;-76
2023/10/24 06:24:32;;;;;;;2.92;2.20;;;14.90;76.40;;;;;;5014664;28;20038;-76
2023/10/24 06:26:57;;;;;;;2.92;2.38;;;14.90;76.40;;;;;;5039461;28;20363;-76
2023/10/24 06:29:23;;;;;;;3.05;2.25;;;14.90;76.40;;;;;;5022494;28;20041;-76
2023/10/24 06:31:49;;;;;;;2.75;2.10;;;14.90;76.40;;;;;;5023703;28;20037;-76
2023/10/24 06:34:14;;;;;;;2.80;2.42;;;14.90;76.40;;;;;;5035831;28;20040;-76
2023/10/24 06:36:40;;;;;;;2.60;2.28;;;14.90;76.40;;;;;;5039060;28;20075;-77
2023/10/24 06:39:06;;;;;;;2.80;2.13;;;14.90;76.40;;;;;;5042562;28;20044;-76
2023/10/24 06:41:32;;;;;;;3.38;2.50;;;14.80;76.30;;;;;;5040810;28;20040;-76
2023/10/24 06:43:58;;;;;;;2.38;1.95;;;14.90;76.50;;;;;;5038739;28;20062;-77
2023/10/24 06:46:24;;;;;;;3.25;2.40;;;14.90;76.40;;;;;;5016078;28;20029;-76
2023/10/24 06:48:50;;;;;;;3.28;2.28;;;14.90;76.40;;;;;;5020948;28;20041;-76
2023/10/24 06:51:16;;;;;;;3.17;2.30;;;14.80;76.40;;;;;;5040325;28;20029;-76
2023/10/24 06:53:42;;;;;;;3.00;2.22;;;14.80;76.40;;;;;;5044291;28;20032;-77
2023/10/24 06:56:08;;;;;;;3.00;2.28;;;14.80;76.40;;;;;;5031544;28;20033;-76
2023/10/24 06:58:34;;;;;;;2.75;2.38;;;14.80;76.40;;;;;;5042105;28;20039;-77
2023/10/24 07:00:59;;;;;;;3.15;2.63;;;14.80;76.40;;;;;;5041097;28;20033;-76
2023/10/24 07:03:25;;;;;;;2.60;2.10;;;14.80;76.40;;;;;;5048229;28;20025;-76
2023/10/24 07:05:52;;;;;;;2.60;2.20;;;14.80;76.40;;;;;;5039834;28;20030;-76
2023/10/24 07:08:18;;;;;;;3.00;2.47;;;14.80;76.40;;;;;;5047313;28;20044;-76
2023/10/24 07:10:45;;;;;;;3.10;2.40;;;14.80;76.40;;;;;;5045046;28;20026;-76
2023/10/24 07:13:11;;;;;;;2.63;2.22;;;14.80;76.40;;;;;;5038679;28;20060;-76
2023/10/24 07:15:38;;;;;;;2.33;1.98;;;14.80;76.40;;;;;;5045457;28;20060;-76
2023/10/24 07:18:04;;;;;;;2.67;2.00;;;14.80;76.40;;;;;;5050812;28;20080;-76
2023/10/24 07:20:33;;;;;;;2.90;2.25;;;14.80;76.40;;;;;;5025764;28;20505;-76
2023/10/24 07:22:59;;;;;;;2.40;1.98;;;14.80;76.40;;;;;;5020402;28;20029;-76
2023/10/24 07:25:25;;;;;;;3.10;2.38;;;14.80;76.40;;;;;;5025143;28;20021;-76
2023/10/24 07:27:51;;;;;;;2.70;2.10;;;14.80;76.40;;;;;;5028203;28;20371;-76
2023/10/24 07:30:16;;;;;;;2.92;2.30;;;14.80;76.40;;;;;;5046231;28;20039;-76
2023/10/24 07:32:42;;;;;;;2.58;2.10;;;14.80;76.40;;;;;;5042474;28;20048;-76
2023/10/24 07:35:08;;;;;;;2.63;2.15;;;14.80;76.40;;;;;;5016953;28;20474;-76
2023/10/24 07:37:35;;;;;;;2.60;2.00;;;14.80;76.40;;;;;;5043855;28;20069;-76
2023/10/24 07:40:02;;;;;;;2.90;2.08;;;14.80;76.40;;;;;;5053329;28;20036;-76
2023/10/24 07:42:28;;;;;;;2.00;1.80;;;14.80;76.40;;;;;;5041191;28;20047;-76
2023/10/24 07:44:54;;;;;;;2.60;2.10;;;14.80;76.40;;;;;;5008645;28;20079;-76
2023/10/24 07:47:20;;;;;;;2.05;1.80;;;14.80;76.40;;;;;;5043283;28;20441;-76
2023/10/24 07:49:45;;;;;;;3.03;2.28;;;14.80;77.10;;;;;;5041597;28;20069;-76
2023/10/24 07:52:11;;;;;;;2.15;1.95;;;14.80;76.40;;;;;;5028150;28;20047;-76
2023/10/24 07:54:37;;;;;;;2.42;2.00;;;14.70;76.40;;;;;;5041170;28;20083;-76
2023/10/24 07:57:03;;;;;;;2.33;1.85;;;14.80;76.40;;;;;;5042920;28;20086;-76
2023/10/24 07:59:29;;;;;;;3.20;2.25;;;14.80;76.50;;;;;;5041156;28;20037;-76
2023/10/24 08:01:55;;;;;;;2.35;2.05;;;14.80;76.40;;;;;;5027607;28;20029;-76
2023/10/24 08:04:21;;;;;;;2.22;1.92;;;14.80;76.40;;;;;;5024799;28;20029;-76
2023/10/24 08:06:46;;;;;;;2.17;1.88;;;14.80;76.40;;;;;;5044630;28;20545;-76
2023/10/24 08:09:12;;;;;;;2.70;2.10;;;14.80;76.40;;;;;;5050907;28;20043;-76
2023/10/24 08:11:38;;;;;;;2.42;2.00;;;14.80;76.40;;;;;;5024793;28;20094;-76
2023/10/24 08:14:04;;;;;;;2.10;1.90;;;14.80;76.50;;;;;;5036286;28;20052;-76
2023/10/24 08:16:29;;;;;;;2.40;2.00;;;14.80;76.40;;;;;;5043916;28;20034;-76
2023/10/24 08:18:56;;;;;;;2.38;1.88;;;14.80;76.40;;;;;;5029393;28;20132;-76
2023/10/24 08:21:21;;;;;;;2.60;2.13;;;14.80;76.40;;;;;;5035686;28;20045;-76
2023/10/24 08:23:47;;;;;;;2.38;1.95;;;14.80;76.40;;;;;;5022443;28;20032;-75
2023/10/24 08:26:13;;;;;;;2.08;1.85;;;14.80;76.40;;;;;;5045073;28;20032;-76
2023/10/24 08:28:38;;;;;;;3.22;2.00;;;14.80;76.40;;;;;;5041921;28;20041;-76
2023/10/24 08:31:04;;;;;;;2.30;2.03;;;14.80;76.40;;;;;;5046086;28;20037;-76
2023/10/24 08:33:30;;;;;;;2.55;2.00;;;14.80;76.40;;;;;;5044139;28;20039;-76
2023/10/24 08:35:56;;;;;;;2.08;1.75;;;14.80;76.40;;;;;;5043033;28;20040;-76
2023/10/24 08:38:22;;;;;;;3.20;2.40;;;14.80;76.40;;;;;;5023812;28;20052;-76
2023/10/24 08:40:48;;;;;;;2.70;1.90;;;14.80;76.40;;;;;;5037348;28;20029;-76
2023/10/24 08:43:15;;;;;;;2.13;1.92;;;14.80;76.40;;;;;;5046762;28;20044;-76
2023/10/24 08:45:42;;;;;;;2.70;2.08;;;14.80;76.40;;;;;;4994579;28;20489;-76
2023/10/24 08:48:09;;;;;;;2.83;2.08;;;14.80;76.40;;;;;;5024061;28;20037;-76
2023/10/24 08:50:35;;;;;;;2.65;1.95;;;14.80;76.40;;;;;;5038870;28;20120;-76
2023/10/24 08:53:01;;;;;;;3.03;2.17;;;14.80;76.40;;;;;;5039884;28;20064;-76
2023/10/24 08:55:28;;;;;;;2.95;2.20;;;14.90;76.50;;;;;;5034996;28;20072;-76
2023/10/24 08:57:55;;;;;;;2.53;1.95;;;14.90;76.50;;;;;;5021157;28;20041;-76
2023/10/24 09:00:22;;;;;;;3.20;2.28;;;14.90;76.50;;;;;;5036443;28;20034;-76
2023/10/24 09:02:48;;;;;;;2.20;1.90;;;14.90;76.50;;;;;;5024259;28;20064;-76
2023/10/24 09:05:15;;;;;;;3.42;2.53;;;14.90;76.50;;;;;;5019528;28;20048;-76
2023/10/24 09:07:40;;;;;;;2.83;2.30;;;14.90;76.50;;;;;;5038977;28;20033;-76
2023/10/24 09:10:07;;;;;;;2.70;2.13;;;14.90;76.40;;;;;;5041472;28;20026;-76
2023/10/24 09:12:34;;;;;;;3.22;2.40;;;15.00;76.50;;;;;;5044938;28;20038;-76
2023/10/24 09:15:01;;;;;;;2.58;2.22;;;15.00;76.50;;;;;;5034658;28;20041;-76
2023/10/24 09:17:30;;;;;;;2.25;2.00;;;15.00;76.50;;;;;;5041931;28;20474;-76
2023/10/24 09:19:56;;;;;;;3.15;2.40;;;15.00;76.50;;;;;;5040685;28;20083;-76
2023/10/24 09:22:22;;;;;;;3.05;2.15;;;15.00;76.40;;;;;;5045969;28;20075;-76
2023/10/24 09:24:49;;;;;;;3.20;2.45;;;15.00;76.40;;;;;;5042892;28;20486;-76
2023/10/24 09:27:17;;;;;;;2.65;2.30;;;15.00;76.40;;;;;;5034567;28;20087;-76
2023/10/24 09:29:43;;;;;;;3.58;2.38;;;15.10;76.50;;;;;;5049514;28;20478;-76
2023/10/24 09:32:16;;;;;;;2.95;2.40;;;15.10;76.40;;;;;;5040867;28;20474;-76
2023/10/24 09:34:43;;;;;;;2.75;2.25;;;15.10;76.40;;;;;;5036079;28;20064;-76
2023/10/24 09:37:10;;;;;;;3.17;2.38;;;15.10;76.40;;;;;;5049235;28;20051;-76
2023/10/24 09:39:51;;;;;;;3.65;2.47;;;15.10;76.40;;;;;;5036004;28;20032;-76
2023/10/24 09:42:38;;;;;;;2.47;2.00;;;15.10;76.40;;;;;;5032296;28;20022;-76
2023/10/24 09:45:05;;;;;;;2.58;2.17;;;15.10;76.40;;;;;;5038528;28;20428;-76
2023/10/24 09:47:32;;;;;;;3.33;2.60;;;15.20;76.30;;;;;;5039602;28;20072;-75
2023/10/24 09:49:59;;;;;;;3.33;2.40;;;15.20;76.40;;;;;;5033705;28;20481;-76
2023/10/24 09:52:27;;;;;;;2.33;2.05;;;15.20;76.40;;;;;;5041180;28;20083;-75
2023/10/24 09:54:55;;;;;;;3.42;2.67;;;15.20;76.40;;;;;;5014382;28;20429;-76
2023/10/24 09:57:22;;;;;;;3.72;2.42;;;15.20;76.30;;;;;;5042770;28;20436;-75
2023/10/24 09:59:54;;;;;;;2.58;2.20;;;15.30;76.40;;;;;;5009363;28;20069;-75
2023/10/24 10:02:23;;;;;;;3.28;2.50;;;15.30;76.40;;;;;;5032754;28;20033;-75
2023/10/24 10:04:50;;;;;;;3.70;2.60;;;15.30;76.40;;;;;;5042316;28;20041;-76
2023/10/24 10:07:18;;;;;;;3.33;2.45;;;15.30;76.30;;;;;;5029565;28;20037;-75
2023/10/24 10:09:50;;;;;;;2.92;2.60;;;15.30;76.30;;;;;;5033794;28;20041;-76
2023/10/24 10:12:18;;;;;;;2.33;2.05;;;15.40;76.30;;;;;;5029322;28;20088;-75
2023/10/24 10:14:51;;;;;;;3.30;2.60;;;15.40;76.30;;;;;;5042962;28;20029;-75
2023/10/24 10:17:38;;;;;;;2.92;2.28;;;15.40;76.30;;;;;;5012765;28;20374;-76
2023/10/24 10:20:32;;;;;;;3.17;2.45;;;15.40;76.20;;;;;;5040085;28;20021;-77
2023/10/24 10:23:26;;;;;;;3.15;2.45;;;15.40;76.10;;;;;;5034953;28;20017;-75
2023/10/24 10:26:08;;;;;;;3.50;2.22;;;15.50;76.10;;;;;;5035686;28;20025;-76
2023/10/24 10:28:49;;;;;;;2.58;2.28;;;15.50;76.10;;;;;;5031541;28;20096;-75
2023/10/24 10:31:38;;;;;;;2.90;2.25;;;15.50;76.10;;;;;;5029412;28;20025;-76
2023/10/24 10:34:04;;;;;;;2.75;2.30;;;15.50;76.00;;;;;;5039995;28;20104;-76
2023/10/24 10:36:30;;;;;;;2.95;2.40;;;15.60;75.90;;;;;;5039028;28;20419;-75
2023/10/24 10:39:00;;;;;;;2.70;2.22;;;15.60;75.80;;;;;;5031581;28;20044;-76
2023/10/24 10:41:28;;;;;;;2.80;2.10;;;15.60;75.80;;;;;;5034236;28;20029;-76
2023/10/24 10:43:59;;;;;;;3.45;2.40;;;15.70;75.80;;;;;;5043828;28;20052;-76
2023/10/24 10:46:29;;;;;;;3.30;2.47;;;15.70;75.70;;;;;;5045186;28;20075;-76
2023/10/24 10:48:59;;;;;;;2.83;2.45;;;15.70;75.70;;;;;;5026823;28;20064;-76
2023/10/24 10:51:36;;;;;;;3.65;2.25;;;15.80;75.70;;;;;;5035844;28;20530;-76
2023/10/24 10:54:27;;;;;;;3.33;2.50;;;15.80;75.70;;;;;;5043022;28;20473;-76
2023/10/24 10:56:57;;;;;;;3.08;2.20;;;15.80;75.60;;;;;;5045514;28;20112;-77
2023/10/24 10:59:48;;;;;;;2.53;2.25;;;15.80;75.50;;;;;;5047049;28;20025;-76
2023/10/24 11:02:46;;;;;;;2.78;2.13;;;15.80;75.60;;;;;;5043015;28;20036;-76
2023/10/24 11:05:36;;;;;;;2.97;2.20;;;15.90;75.60;;;;;;5029408;28;20060;-76
2023/10/24 11:08:04;;;;;;;2.33;2.00;;;15.90;75.60;;;;;;5036446;28;20056;-76
2023/10/24 11:10:51;;;;;;;2.78;2.20;;;15.90;75.40;;;;;;5029599;28;20363;-76
2023/10/24 11:13:36;;;;;;;3.78;2.38;;;15.90;75.50;;;;;;5049138;28;20045;-76
2023/10/24 11:16:03;;;;;;;2.17;1.98;;;16.00;75.60;;;;;;5053668;28;20026;-76
2023/10/24 11:18:31;;;;;;;2.78;2.30;;;16.00;75.50;;;;;;5045177;28;20037;-76
2023/10/24 11:20:58;;;;;;;2.65;2.10;;;16.00;75.50;;;;;;5049584;28;20076;-76
2023/10/24 11:23:25;;;;;;;2.60;2.10;;;16.00;75.50;;;;;;5037350;28;20048;-76
2023/10/24 11:25:50;;;;;;;2.47;2.10;;;16.10;75.50;;;;;;5012399;28;20055;-76
2023/10/24 11:28:16;;;;;;;2.40;2.20;;;16.10;75.40;;;;;;5024851;28;20439;-76
2023/10/24 11:30:42;;;;;;;2.78;2.10;;;16.00;75.30;;;;;;5042010;28;20041;-76
2023/10/24 11:33:08;;;;;;;3.13;2.20;;;16.10;75.30;;;;;;5026431;28;20028;-76
2023/10/24 11:35:33;;;;;;;2.85;2.25;;;16.10;75.20;;;;;;5040896;28;20025;-76
2023/10/24 11:37:59;;;;;;;2.88;2.20;;;16.10;75.20;;;;;;5021296;28;20508;-76
2023/10/24 11:40:25;;;;;;;2.53;2.13;;;16.20;75.20;;;;;;5011355;28;20036;-76
2023/10/24 11:42:51;;;;;;;2.42;2.22;;;16.20;75.20;;;;;;5041636;28;20045;-76
2023/10/24 11:45:16;;;;;;;3.03;2.25;;;16.20;75.20;;;;;;5034574;28;20497;-76
2023/10/24 11:47:42;;;;;;;2.63;2.20;;;16.20;75.10;;;;;;4996630;28;20033;-76
2023/10/24 11:50:08;;;;;;;2.80;1.92;;;16.20;75.10;;;;;;5035336;28;20033;-76
2023/10/24 11:52:34;;;;;;;3.15;2.25;;;16.20;75.10;;;;;;5024780;28;20121;-76
2023/10/24 11:55:01;;;;;;;3.45;2.60;;;16.30;75.10;;;;;;5025992;28;20164;-76
2023/10/24 11:57:27;;;;;;;2.33;2.00;;;16.30;75.10;;;;;;5044327;28;20469;-76
2023/10/24 11:59:54;;;;;;;3.40;2.28;;;16.30;75.10;;;;;;5030734;28;20029;-76
2023/10/24 12:02:21;;;;;;;2.70;1.98;;;16.30;75.10;;;;;;5036682;28;20465;-76
2023/10/24 12:04:51;;;;;;;2.47;2.20;;;16.30;75.10;;;;;;5039009;28;20021;-76
2023/10/24 12:07:17;;;;;;;2.30;1.90;;;16.30;75.10;;;;;;5042695;28;20367;-76
2023/10/24 12:09:42;;;;;;;2.78;2.30;;;16.30;75.00;;;;;;5038359;28;20060;-76
2023/10/24 12:12:11;;;;;;;2.83;2.20;;;16.30;75.00;;;;;;5030036;28;20030;-76
2023/10/24 12:14:37;;;;;;;2.67;2.08;;;16.30;75.00;;;;;;5041852;28;20544;-77
2023/10/24 12:17:03;;;;;;;3.42;2.28;;;16.30;75.00;;;;;;5023445;28;20040;-76
2023/10/24 12:19:28;;;;;;;3.05;2.20;;;16.40;75.10;;;;;;5044208;28;20401;-77
2023/10/24 12:21:54;;;;;;;2.80;2.20;;;16.40;75.00;;;;;;5037965;28;20030;-76
2023/10/24 12:24:20;;;;;;;2.63;2.15;;;16.40;75.00;;;;;;5044461;28;20025;-76
2023/10/24 12:26:46;;;;;;;2.60;2.20;;;16.40;75.00;;;;;;5034039;28;20025;-76
2023/10/24 12:29:11;;;;;;;3.30;2.05;;;16.40;75.00;;;;;;5039569;28;20090;-76
2023/10/24 12:31:39;;;;;;;2.47;2.08;;;16.40;75.00;;;;;;5028862;28;20497;-76
2023/10/24 12:34:04;;;;;;;3.13;2.45;;;16.40;75.10;;;;;;5038946;28;20017;-76
2023/10/24 12:36:30;;;;;;;2.30;1.95;;;16.40;75.00;;;;;;5023897;28;20413;-77
2023/10/24 12:38:56;;;;;;;2.60;1.80;;;16.40;75.00;;;;;;5040113;28;20394;-76
2023/10/24 12:41:22;;;;;;;3.13;2.15;;;16.40;75.00;;;;;;5037028;28;20037;-76
2023/10/24 12:43:48;;;;;;;1.98;1.77;;;16.40;75.00;;;;;;5029640;28;20033;-77
2023/10/24 12:46:14;;;;;;;2.50;2.03;;;16.40;75.00;;;;;;5036779;28;20412;-76
2023/10/24 12:48:40;;;;;;;2.55;1.90;;;16.40;75.00;;;;;;5043307;28;20041;-77